createdAt,value
2023-03-06T00:00:58.762Z,62.89
2023-03-06T00:04:01.859Z,63.44
2023-03-06T00:07:04.835Z,63.14
2023-03-06T00:10:08.770Z,63.70
2023-03-06T00:13:14.372Z,62.85
2023-03-06T00:16:17.598Z,63.02
2023-03-06T00:19:20.654Z,62.92
2023-03-06T00:22:23.770Z,62.28
2023-03-06T00:25:26.916Z,64.25
2023-03-06T00:28:31.708Z,62.11
2023-03-06T00:31:36.183Z,63.25
2023-03-06T00:34:39.593Z,63.25
2023-03-06T00:37:44.880Z,62.64
2023-03-06T00:40:48.343Z,63.68
2023-03-06T00:43:51.415Z,62.76
2023-03-06T00:46:54.438Z,61.54
2023-03-06T00:49:57.655Z,62.53
2023-03-06T00:53:00.605Z,62.36
2023-03-06T00:56:03.736Z,63.06
2023-03-06T00:59:07.052Z,61.54
2023-03-06T01:02:10.459Z,64.09
2023-03-06T01:05:14.478Z,63.15
2023-03-06T01:08:17.626Z,62.31
2023-03-06T01:11:20.601Z,61.94
2023-03-06T01:14:24.432Z,62.18
2023-03-06T01:17:27.410Z,62.71
2023-03-06T01:20:30.498Z,62.43
2023-03-06T01:23:34.330Z,61.86
2023-03-06T01:26:37.605Z,62.04
2023-03-06T01:29:40.914Z,62.82
2023-03-06T01:32:44.491Z,62.54
2023-03-06T01:35:47.799Z,62.82
2023-03-06T01:38:51.039Z,62.27
2023-03-06T01:41:54.227Z,62.82
2023-03-06T01:45:13.760Z,62.91
2023-03-06T01:48:21.253Z,62.60
2023-03-06T01:51:33.656Z,63.01
2023-03-06T01:55:09.672Z,62.02
2023-03-06T01:58:18.090Z,62.44
2023-03-06T02:01:21.829Z,63.22
2023-03-06T02:04:25.140Z,62.54
2023-03-06T02:07:28.630Z,63.08
2023-03-06T02:10:31.914Z,62.75
2023-03-06T02:13:36.498Z,63.05
2023-03-06T02:16:40.170Z,63.36
2023-03-06T02:19:48.497Z,63.48
2023-03-06T02:23:06.175Z,63.14
2023-03-06T02:26:10.336Z,63.05
2023-03-06T02:29:18.754Z,63.13
2023-03-06T02:32:22.385Z,63.25
2023-03-06T02:35:32.311Z,63.16
2023-03-06T02:38:41.692Z,62.16
2023-03-06T02:41:44.724Z,64.74
2023-03-06T02:44:49.605Z,63.94
2023-03-06T02:47:53.772Z,64.46
2023-03-06T02:50:56.693Z,64.42
2023-03-06T02:54:00.017Z,63.72
2023-03-06T02:57:03.287Z,63.98
2023-03-06T03:00:08.707Z,63.75
2023-03-06T03:03:11.761Z,63.54
2023-03-06T03:06:14.751Z,63.46
2023-03-06T03:09:18.399Z,64.34
2023-03-06T03:12:22.671Z,63.98
2023-03-06T03:15:26.286Z,64.59
2023-03-06T03:18:29.792Z,64.87
2023-03-06T03:21:32.749Z,65.34
2023-03-06T03:24:36.134Z,66.05
2023-03-06T03:27:39.785Z,66.56
2023-03-06T03:30:44.054Z,65.19
2023-03-06T03:33:47.941Z,65.56
2023-03-06T03:36:51.470Z,64.68
2023-03-06T03:39:55.042Z,64.25
2023-03-06T03:42:59.435Z,64.67
2023-03-06T03:46:02.657Z,64.60
2023-03-06T03:49:06.567Z,65.05
2023-03-06T03:52:09.970Z,64.20
2023-03-06T03:55:15.263Z,64.14
2023-03-06T03:58:18.839Z,64.10
2023-03-06T04:01:21.753Z,65.50
2023-03-06T04:04:25.466Z,64.42
2023-03-06T04:07:28.806Z,65.76
2023-03-06T04:10:32.165Z,65.12
2023-03-06T04:13:38.272Z,64.13
2023-03-06T04:16:42.386Z,64.18
2023-03-06T04:19:45.580Z,64.55
2023-03-06T04:22:48.893Z,63.91
2023-03-06T04:25:53.029Z,64.80
2023-03-06T04:28:58.612Z,64.81
2023-03-06T04:32:02.915Z,64.47
2023-03-06T04:35:06.399Z,64.42
2023-03-06T04:38:15.621Z,64.85
2023-03-06T04:41:18.738Z,65.32
2023-03-06T04:44:21.922Z,64.49
2023-03-06T04:47:24.924Z,64.38
2023-03-06T04:50:32.335Z,64.83
2023-03-06T04:53:35.527Z,65.33
2023-03-06T04:56:38.656Z,64.46
2023-03-06T04:59:41.743Z,63.68
2023-03-06T05:02:45.575Z,64.39
2023-03-06T05:05:48.705Z,64.46
2023-03-06T05:08:51.821Z,63.92
2023-03-06T05:11:55.181Z,65.20
2023-03-06T05:14:58.451Z,64.69
2023-03-06T05:18:01.578Z,64.46
2023-03-06T05:21:05.535Z,65.79
2023-03-06T05:24:09.813Z,65.18
2023-03-06T05:27:13.431Z,65.69
2023-03-06T05:30:17.708Z,65.46
2023-03-06T05:33:20.730Z,65.05
2023-03-06T05:36:23.813Z,65.83
2023-03-06T05:39:30.352Z,65.05
2023-03-06T05:42:33.390Z,65.71
2023-03-06T05:45:36.715Z,65.57
2023-03-06T05:48:40.047Z,65.71
2023-03-06T05:51:43.137Z,66.02
2023-03-06T05:54:50.774Z,66.02
2023-03-06T05:57:54.093Z,67.14
2023-03-06T06:00:57.392Z,66.57
2023-03-06T06:04:00.521Z,66.52
2023-03-06T06:07:04.016Z,66.20
2023-03-06T06:10:07.944Z,66.30
2023-03-06T06:13:10.841Z,66.83
2023-03-06T06:16:19.651Z,65.65
2023-03-06T06:19:23.155Z,66.43
2023-03-06T06:22:26.368Z,66.63
2023-03-06T06:25:29.521Z,66.40
2023-03-06T06:28:33.591Z,65.70
2023-03-06T06:31:37.321Z,66.71
2023-03-06T06:34:40.496Z,65.83
2023-03-06T06:37:43.731Z,65.41
2023-03-06T06:41:04.219Z,64.29
2023-03-06T06:44:14.593Z,65.41
2023-03-06T06:47:24.226Z,65.93
2023-03-06T06:50:27.922Z,65.92
2023-03-06T06:53:31.522Z,66.24
2023-03-06T06:56:35.709Z,64.89
2023-03-06T06:59:39.747Z,63.04
2023-03-06T07:02:42.915Z,62.43
2023-03-06T07:05:46.256Z,64.17
2023-03-06T07:08:49.880Z,63.26
2023-03-06T07:12:09.411Z,64.31
2023-03-06T07:15:18.753Z,63.22
2023-03-06T07:18:22.273Z,62.35
2023-03-06T07:21:26.036Z,62.19
2023-03-06T07:24:29.716Z,61.45
2023-03-06T07:27:33.409Z,61.88
2023-03-06T07:30:36.714Z,61.04
2023-03-06T07:33:40.170Z,60.83
2023-03-06T07:36:43.240Z,61.41
2023-03-06T07:39:47.665Z,61.26
2023-03-06T07:42:54.524Z,61.50
2023-03-06T07:46:02.469Z,62.00
2023-03-06T07:49:06.181Z,61.12
2023-03-06T07:52:10.008Z,60.62
2023-03-06T07:55:14.567Z,60.62
2023-03-06T07:58:20.672Z,60.86
2023-03-06T08:01:24.969Z,59.50
2023-03-06T08:04:29.116Z,58.17
2023-03-06T08:07:33.765Z,55.79
2023-03-06T08:10:37.581Z,56.31
2023-03-06T08:13:41.720Z,56.37
2023-03-06T08:16:45.651Z,56.80
2023-03-06T08:19:49.078Z,56.54
2023-03-06T08:22:52.768Z,56.20
2023-03-06T08:26:00.947Z,57.20
2023-03-06T08:29:05.025Z,55.95
2023-03-06T08:32:12.577Z,56.07
2023-03-06T08:35:16.387Z,56.75
2023-03-06T08:38:19.775Z,57.88
2023-03-06T08:41:25.198Z,57.35
2023-03-06T08:44:29.038Z,58.28
2023-03-06T08:47:32.415Z,58.84
2023-03-06T08:50:36.048Z,57.69
2023-03-06T08:53:43.522Z,58.83
2023-03-06T08:56:51.081Z,57.26
2023-03-06T08:59:54.405Z,58.00
2023-03-06T09:02:58.783Z,57.69
2023-03-06T09:06:05.884Z,58.03
2023-03-06T09:09:12.523Z,58.24
2023-03-06T09:12:16.013Z,57.28
2023-03-06T09:15:21.179Z,57.16
2023-03-06T09:18:24.911Z,57.79
2023-03-06T09:21:29.099Z,56.35
2023-03-06T09:24:33.103Z,57.36
2023-03-06T09:27:36.839Z,57.72
2023-03-06T09:30:41.434Z,57.83
2023-03-06T09:33:45.207Z,58.07
2023-03-06T09:36:56.711Z,57.36
2023-03-06T09:40:00.911Z,58.05
2023-03-06T09:43:05.520Z,57.87
2023-03-06T09:46:19.307Z,55.86
2023-03-06T09:50:11.597Z,55.24
2023-03-06T09:53:27.000Z,55.81
2023-03-06T09:56:33.640Z,55.25
2023-03-06T09:59:48.314Z,55.24
2023-03-06T10:03:07.993Z,52.52
2023-03-06T10:06:26.685Z,51.60
2023-03-06T10:09:41.992Z,50.01
2023-03-06T10:13:27.872Z,50.87
2023-03-06T10:16:32.864Z,51.49
2023-03-06T10:19:40.268Z,51.18
2023-03-06T10:23:00.864Z,51.05
2023-03-06T10:26:19.256Z,48.49
2023-03-06T10:29:33.537Z,48.62
2023-03-06T10:33:04.047Z,48.64
2023-03-06T10:36:30.112Z,47.80
2023-03-06T10:39:45.938Z,49.41
2023-03-06T10:43:01.518Z,48.98
2023-03-06T10:46:15.333Z,48.05
2023-03-06T10:49:36.115Z,48.08
2023-03-06T10:52:40.256Z,47.28
2023-03-06T10:55:58.565Z,45.25
2023-03-06T10:59:11.144Z,46.49
2023-03-06T11:02:30.303Z,44.76
2023-03-06T11:05:36.512Z,46.91
2023-03-06T11:08:43.191Z,44.49
2023-03-06T11:11:58.030Z,44.84
2023-03-06T11:15:15.255Z,45.29
2023-03-06T11:18:18.699Z,45.39
2023-03-06T11:21:34.892Z,44.59
2023-03-06T11:24:45.920Z,44.61
2023-03-06T11:27:58.230Z,42.90
2023-03-06T11:31:13.891Z,45.13
2023-03-06T11:34:27.942Z,45.51
2023-03-06T11:37:44.343Z,43.63
2023-03-06T11:40:59.035Z,42.47
2023-03-06T11:44:15.639Z,42.39
2023-03-06T11:47:22.580Z,42.49
2023-03-06T11:50:31.429Z,42.13
2023-03-06T11:53:40.049Z,42.84
2023-03-06T11:57:00.154Z,42.98
2023-03-06T12:00:54.217Z,42.61
2023-03-06T12:04:29.651Z,43.39
2023-03-06T12:07:37.681Z,43.04
2023-03-06T12:10:51.987Z,44.22
2023-03-06T12:14:16.744Z,43.41
2023-03-06T12:17:35.914Z,43.67
2023-03-06T12:20:42.408Z,45.43
2023-03-06T12:24:08.664Z,45.33
2023-03-06T12:27:37.345Z,45.14
2023-03-06T12:30:52.824Z,42.91
2023-03-06T12:34:21.928Z,43.28
2023-03-06T12:37:31.409Z,44.64
2023-03-06T12:40:37.386Z,43.96
2023-03-06T12:43:50.730Z,45.32
2023-03-06T12:47:08.670Z,44.63
2023-03-06T12:50:31.279Z,45.21
2023-03-06T12:53:37.256Z,44.96
2023-03-06T12:56:42.273Z,44.40
2023-03-06T12:59:48.655Z,44.37
2023-03-06T13:03:11.256Z,45.10
2023-03-06T13:06:50.961Z,45.60
2023-03-06T13:10:34.589Z,45.54
2023-03-06T13:13:48.108Z,44.84
2023-03-06T13:16:51.692Z,45.78
2023-03-06T13:20:35.645Z,45.49
2023-03-06T13:23:51.486Z,45.93
2023-03-06T13:26:58.391Z,46.72
2023-03-06T13:30:20.053Z,46.59
2023-03-06T13:33:33.226Z,46.72
2023-03-06T13:36:39.824Z,47.10
2023-03-06T13:39:58.877Z,46.67
2023-03-06T13:43:18.952Z,46.28
2023-03-06T13:46:27.529Z,47.12
2023-03-06T13:49:32.710Z,46.36
2023-03-06T13:52:45.955Z,47.79
2023-03-06T13:56:00.014Z,46.83
2023-03-06T13:59:22.242Z,47.55
2023-03-06T14:03:00.629Z,47.61
2023-03-06T14:06:35.788Z,47.94
2023-03-06T14:09:43.618Z,46.84
2023-03-06T14:12:49.962Z,47.93
2023-03-06T14:15:55.490Z,47.22
2023-03-06T14:19:00.792Z,47.76
2023-03-06T14:22:06.063Z,48.06
2023-03-06T14:25:28.068Z,48.41
2023-03-06T14:28:35.245Z,47.13
2023-03-06T14:31:42.944Z,47.51
2023-03-06T14:34:47.192Z,48.41
2023-03-06T14:37:55.790Z,47.39
2023-03-06T14:40:59.076Z,48.31
2023-03-06T14:44:26.627Z,50.34
2023-03-06T14:47:32.341Z,53.69
2023-03-06T14:50:36.723Z,52.65
2023-03-06T14:53:39.844Z,55.08
2023-03-06T14:56:46.217Z,56.95
2023-03-06T14:59:56.418Z,56.95
2023-03-06T15:03:00.266Z,57.52
2023-03-06T15:06:05.127Z,57.01
2023-03-06T15:09:24.508Z,55.36
2023-03-06T15:12:27.472Z,54.46
2023-03-06T15:15:32.797Z,54.37
2023-03-06T15:18:39.357Z,53.17
2023-03-06T15:21:48.565Z,51.89
2023-03-06T15:24:52.012Z,51.50
2023-03-06T15:27:58.216Z,52.52
2023-03-06T15:31:21.313Z,52.83
2023-03-06T15:34:24.291Z,51.55
2023-03-06T15:37:29.162Z,52.80
2023-03-06T15:40:33.190Z,53.45
2023-03-06T15:43:40.432Z,56.20
2023-03-06T15:46:44.585Z,55.37
2023-03-06T15:49:52.170Z,55.20
2023-03-06T15:52:55.621Z,55.72
2023-03-06T15:55:59.752Z,54.28
2023-03-06T15:59:03.641Z,54.43
2023-03-06T16:02:18.970Z,53.22
2023-03-06T16:05:22.497Z,54.02
2023-03-06T16:08:25.839Z,55.26
2023-03-06T16:11:43.362Z,54.88
2023-03-06T16:14:47.948Z,55.43
2023-03-06T16:17:51.171Z,56.17
2023-03-06T16:20:54.244Z,56.88
2023-03-06T16:23:57.582Z,56.69
2023-03-06T16:27:02.212Z,56.49
2023-03-06T16:30:05.827Z,57.71
2023-03-06T16:33:11.075Z,58.74
2023-03-06T16:36:20.927Z,59.42
2023-03-06T16:39:24.596Z,59.20
2023-03-06T16:42:28.249Z,60.21
2023-03-06T16:45:31.828Z,58.95
2023-03-06T16:48:34.904Z,59.19
2023-03-06T16:51:39.886Z,57.17
2023-03-06T16:54:44.693Z,55.96
2023-03-06T16:57:48.448Z,54.93
2023-03-06T17:00:51.989Z,55.99
2023-03-06T17:03:55.206Z,56.33
2023-03-06T17:06:58.471Z,57.69
2023-03-06T17:10:02.605Z,58.85
2023-03-06T17:13:07.553Z,57.78
2023-03-06T17:16:16.088Z,57.30
2023-03-06T17:19:19.159Z,57.57
2023-03-06T17:22:22.701Z,57.77
2023-03-06T17:25:26.225Z,58.59
2023-03-06T17:28:29.457Z,58.46
2023-03-06T17:31:33.204Z,59.34
2023-03-06T17:34:36.650Z,59.86
2023-03-06T17:37:39.732Z,59.88
2023-03-06T17:40:43.091Z,59.77
2023-03-06T17:43:46.497Z,58.65
2023-03-06T17:46:50.240Z,58.86
2023-03-06T17:49:54.248Z,60.09
2023-03-06T17:52:57.443Z,59.12
2023-03-06T17:56:12.821Z,59.65
2023-03-06T17:59:16.878Z,60.07
2023-03-06T18:02:20.825Z,61.27
2023-03-06T18:05:24.115Z,59.60
2023-03-06T18:08:27.588Z,60.18
2023-03-06T18:11:31.413Z,61.34
2023-03-06T18:14:34.985Z,59.69
2023-03-06T18:17:38.792Z,60.22
2023-03-06T18:20:42.226Z,59.78
2023-03-06T18:23:45.589Z,60.86
2023-03-06T18:26:49.209Z,60.26
2023-03-06T18:29:52.885Z,60.62
2023-03-06T18:32:56.469Z,61.34
2023-03-06T18:36:03.686Z,61.66
2023-03-06T18:39:09.197Z,62.65
2023-03-06T18:42:12.294Z,61.94
2023-03-06T18:45:15.925Z,61.64
2023-03-06T18:48:19.218Z,62.34
2023-03-06T18:51:22.584Z,62.27
2023-03-06T18:54:28.704Z,61.49
2023-03-06T18:57:32.049Z,61.29
2023-03-06T19:00:35.617Z,60.17
2023-03-06T19:03:40.763Z,61.35
2023-03-06T19:06:44.326Z,62.14
2023-03-06T19:09:51.169Z,63.30
2023-03-06T19:12:54.512Z,63.07
2023-03-06T19:15:58.545Z,61.78
2023-03-06T19:19:02.136Z,61.02
2023-03-06T19:22:05.478Z,63.12
2023-03-06T19:25:09.598Z,62.49
2023-03-06T19:28:13.060Z,62.66
2023-03-06T19:31:20.337Z,63.12
2023-03-06T19:34:23.876Z,62.94
2023-03-06T19:37:27.181Z,61.80
2023-03-06T19:40:32.368Z,62.97
2023-03-06T19:43:36.378Z,62.54
2023-03-06T19:46:40.838Z,63.12
2023-03-06T19:49:44.451Z,62.72
2023-03-06T19:52:47.575Z,62.20
2023-03-06T19:55:51.535Z,62.07
2023-03-06T19:58:55.643Z,62.33
2023-03-06T20:01:58.810Z,61.95
2023-03-06T20:05:02.003Z,64.92
2023-03-06T20:08:05.610Z,66.48
2023-03-06T20:11:38.549Z,67.06
2023-03-06T20:14:42.872Z,70.08
2023-03-06T20:17:46.446Z,69.93
2023-03-06T20:21:00.948Z,67.78
2023-03-06T20:24:05.960Z,68.07
2023-03-06T20:27:09.293Z,68.53
2023-03-06T20:30:12.969Z,68.55
2023-03-06T20:33:17.019Z,69.67
2023-03-06T20:36:28.133Z,70.38
2023-03-06T20:39:31.633Z,69.51
2023-03-06T20:42:35.227Z,70.83
2023-03-06T20:45:38.656Z,73.01
2023-03-06T20:48:43.570Z,72.59
2023-03-06T20:51:47.294Z,71.31
2023-03-06T20:54:51.052Z,73.73
2023-03-06T20:57:54.416Z,73.74
2023-03-06T21:01:00.346Z,73.88
2023-03-06T21:04:06.090Z,72.72
2023-03-06T21:07:09.211Z,70.70
2023-03-06T21:10:13.651Z,72.27
2023-03-06T21:13:17.310Z,72.71
2023-03-06T21:16:22.680Z,74.87
2023-03-06T21:19:26.482Z,76.19
2023-03-06T21:22:30.401Z,74.73
2023-03-06T21:25:34.259Z,74.49
2023-03-06T21:28:37.424Z,75.19
2023-03-06T21:31:41.163Z,76.20
2023-03-06T21:34:44.342Z,76.09
2023-03-06T21:37:47.478Z,75.94
2023-03-06T21:40:51.238Z,75.64
2023-03-06T21:43:59.385Z,67.69
2023-03-06T21:47:02.490Z,72.49
2023-03-06T21:50:07.688Z,75.26
2023-03-06T21:53:12.063Z,77.50
2023-03-06T21:56:18.422Z,75.38
2023-03-06T21:59:21.629Z,76.56
2023-03-06T22:02:25.375Z,74.73
2023-03-06T22:05:28.425Z,75.44
2023-03-06T22:08:31.423Z,76.72
2023-03-06T22:11:37.455Z,77.44
2023-03-06T22:14:40.531Z,78.15
2023-03-06T22:17:43.630Z,79.62
2023-03-06T22:20:47.530Z,78.52
2023-03-06T22:23:57.649Z,78.63
2023-03-06T22:27:00.754Z,79.00
2023-03-06T22:30:05.060Z,79.55
2023-03-06T22:33:08.177Z,79.75
2023-03-06T22:36:13.675Z,80.39
2023-03-06T22:39:17.073Z,80.09
2023-03-06T22:42:20.229Z,80.89
2023-03-06T22:45:23.277Z,80.54
2023-03-06T22:48:26.253Z,79.46
2023-03-06T22:51:30.002Z,79.05
2023-03-06T22:54:33.759Z,77.46
2023-03-06T22:57:36.939Z,78.52
2023-03-06T23:00:40.050Z,79.47
2023-03-06T23:03:46.206Z,78.41
2023-03-06T23:06:49.264Z,79.10
2023-03-06T23:09:52.324Z,78.39
2023-03-06T23:13:14.410Z,79.17
2023-03-06T23:16:36.814Z,79.36
2023-03-06T23:19:58.482Z,79.02
2023-03-06T23:23:19.917Z,79.46
2023-03-06T23:26:26.428Z,79.54
2023-03-06T23:29:30.128Z,80.00
2023-03-06T23:32:33.956Z,79.93
2023-03-06T23:35:39.252Z,79.40
2023-03-06T23:38:42.665Z,79.50
2023-03-06T23:41:45.792Z,79.63
2023-03-06T23:44:49.258Z,78.86
2023-03-06T23:47:52.283Z,79.56
2023-03-06T23:50:56.136Z,78.28
2023-03-06T23:54:00.531Z,78.32
2023-03-06T23:57:03.706Z,78.30
